sensor_id;sensor_type;location;lat;lon;timestamp;P1;durP1;ratioP1;P2;durP2;ratioP2
71902;SDS011;59778;50.310;18.780;2024-01-30T00:01:02;50.97;;;17.30;;
71902;SDS011;59778;50.310;18.780;2024-01-30T00:16:24;30.90;;;9.90;;
71902;SDS011;59778;50.310;18.780;2024-01-30T00:31:45;28.10;;;10.13;;
71902;SDS011;59778;50.310;18.780;2024-01-30T00:47:06;18.80;;;7.17;;
71902;SDS011;59778;50.310;18.780;2024-01-30T01:02:28;17.63;;;6.10;;
71902;SDS011;59778;50.310;18.780;2024-01-30T01:17:49;16.93;;;7.10;;
71902;SDS011;59778;50.310;18.780;2024-01-30T01:33:10;18.10;;;7.03;;
71902;SDS011;59778;50.310;18.780;2024-01-30T01:48:31;20.13;;;6.70;;
71902;SDS011;59778;50.310;18.780;2024-01-30T02:03:52;23.53;;;8.40;;
71902;SDS011;59778;50.310;18.780;2024-01-30T02:19:14;23.70;;;8.20;;
71902;SDS011;59778;50.310;18.780;2024-01-30T02:34:37;19.27;;;7.57;;
71902;SDS011;59778;50.310;18.780;2024-01-30T02:49:58;21.23;;;7.87;;
71902;SDS011;59778;50.310;18.780;2024-01-30T03:05:19;21.63;;;8.30;;
71902;SDS011;59778;50.310;18.780;2024-01-30T03:20:40;20.67;;;7.47;;
71902;SDS011;59778;50.310;18.780;2024-01-30T03:36:05;19.73;;;8.03;;
71902;SDS011;59778;50.310;18.780;2024-01-30T03:51:26;21.00;;;7.23;;
71902;SDS011;59778;50.310;18.780;2024-01-30T04:06:47;24.63;;;7.53;;
71902;SDS011;59778;50.310;18.780;2024-01-30T04:22:09;22.57;;;8.53;;
71902;SDS011;59778;50.310;18.780;2024-01-30T04:37:30;17.33;;;7.13;;
71902;SDS011;59778;50.310;18.780;2024-01-30T04:52:51;19.60;;;7.63;;
71902;SDS011;59778;50.310;18.780;2024-01-30T05:08:12;20.33;;;7.77;;
71902;SDS011;59778;50.310;18.780;2024-01-30T05:23:33;23.30;;;8.10;;
71902;SDS011;59778;50.310;18.780;2024-01-30T05:38:55;19.23;;;7.50;;
71902;SDS011;59778;50.310;18.780;2024-01-30T05:54:16;26.30;;;8.67;;
71902;SDS011;59778;50.310;18.780;2024-01-30T06:09:38;24.70;;;8.83;;
71902;SDS011;59778;50.310;18.780;2024-01-30T06:25:00;20.13;;;7.43;;
71902;SDS011;59778;50.310;18.780;2024-01-30T06:40:21;25.17;;;8.77;;
71902;SDS011;59778;50.310;18.780;2024-01-30T06:55:42;32.37;;;10.83;;
71902;SDS011;59778;50.310;18.780;2024-01-30T07:11:03;25.07;;;10.43;;
71902;SDS011;59778;50.310;18.780;2024-01-30T07:26:24;26.20;;;9.80;;
71902;SDS011;59778;50.310;18.780;2024-01-30T07:41:46;29.53;;;9.00;;
71902;SDS011;59778;50.310;18.780;2024-01-30T07:57:07;22.83;;;9.80;;
71902;SDS011;59778;50.310;18.780;2024-01-30T08:12:28;24.30;;;9.47;;
71902;SDS011;59778;50.310;18.780;2024-01-30T08:27:49;26.30;;;9.23;;
71902;SDS011;59778;50.310;18.780;2024-01-30T08:43:10;23.20;;;6.70;;
71902;SDS011;59778;50.310;18.780;2024-01-30T08:58:31;22.07;;;8.17;;
71902;SDS011;59778;50.310;18.780;2024-01-30T09:13:53;22.30;;;8.43;;
71902;SDS011;59778;50.310;18.780;2024-01-30T09:29:14;20.53;;;6.87;;
71902;SDS011;59778;50.310;18.780;2024-01-30T09:44:35;18.00;;;7.47;;
71902;SDS011;59778;50.310;18.780;2024-01-30T09:59:57;21.90;;;8.07;;
71902;SDS011;59778;50.310;18.780;2024-01-30T10:15:19;17.27;;;7.20;;
71902;SDS011;59778;50.310;18.780;2024-01-30T10:30:40;21.57;;;7.87;;
71902;SDS011;59778;50.310;18.780;2024-01-30T10:46:10;16.13;;;6.57;;
71902;SDS011;59778;50.310;18.780;2024-01-30T11:01:32;13.77;;;5.47;;
71902;SDS011;59778;50.310;18.780;2024-01-30T11:16:56;16.87;;;6.70;;
71902;SDS011;59778;50.310;18.780;2024-01-30T11:32:22;12.20;;;5.63;;
71902;SDS011;59778;50.310;18.780;2024-01-30T11:47:44;16.07;;;6.20;;
71902;SDS011;59778;50.310;18.780;2024-01-30T12:03:06;16.90;;;7.20;;
71902;SDS011;59778;50.310;18.780;2024-01-30T12:18:28;18.57;;;6.97;;
71902;SDS011;59778;50.310;18.780;2024-01-30T12:33:49;16.47;;;6.87;;
71902;SDS011;59778;50.310;18.780;2024-01-30T12:49:10;20.70;;;7.07;;
71902;SDS011;59778;50.310;18.780;2024-01-30T13:04:55;16.97;;;7.70;;
71902;SDS011;59778;50.310;18.780;2024-01-30T13:20:16;15.93;;;6.03;;
71902;SDS011;59778;50.310;18.780;2024-01-30T13:35:37;15.83;;;6.40;;
71902;SDS011;59778;50.310;18.780;2024-01-30T13:50:59;13.97;;;5.73;;
71902;SDS011;59778;50.310;18.780;2024-01-30T14:06:20;20.70;;;8.60;;
71902;SDS011;59778;50.310;18.780;2024-01-30T14:21:41;19.47;;;6.50;;
71902;SDS011;59778;50.310;18.780;2024-01-30T14:37:02;15.23;;;6.53;;
71902;SDS011;59778;50.310;18.780;2024-01-30T14:52:24;19.43;;;6.93;;
71902;SDS011;59778;50.310;18.780;2024-01-30T15:07:45;21.73;;;9.43;;
71902;SDS011;59778;50.310;18.780;2024-01-30T15:23:07;21.23;;;7.40;;
71902;SDS011;59778;50.310;18.780;2024-01-30T15:38:28;30.17;;;11.83;;
71902;SDS011;59778;50.310;18.780;2024-01-30T15:53:50;24.20;;;9.03;;
71902;SDS011;59778;50.310;18.780;2024-01-30T16:09:12;26.80;;;9.47;;
71902;SDS011;59778;50.310;18.780;2024-01-30T16:24:35;25.70;;;10.10;;
71902;SDS011;59778;50.310;18.780;2024-01-30T16:39:56;26.37;;;9.93;;
71902;SDS011;59778;50.310;18.780;2024-01-30T16:55:17;46.97;;;16.13;;
71902;SDS011;59778;50.310;18.780;2024-01-30T17:10:39;27.87;;;9.80;;
71902;SDS011;59778;50.310;18.780;2024-01-30T17:26:01;29.50;;;8.90;;
71902;SDS011;59778;50.310;18.780;2024-01-30T17:41:22;27.93;;;10.57;;
71902;SDS011;59778;50.310;18.780;2024-01-30T17:56:43;25.23;;;9.17;;
71902;SDS011;59778;50.310;18.780;2024-01-30T18:12:06;31.63;;;11.67;;
71902;SDS011;59778;50.310;18.780;2024-01-30T18:27:28;26.97;;;10.27;;
71902;SDS011;59778;50.310;18.780;2024-01-30T18:42:49;17.00;;;5.77;;
71902;SDS011;59778;50.310;18.780;2024-01-30T18:58:11;17.47;;;5.00;;
71902;SDS011;59778;50.310;18.780;2024-01-30T19:13:32;12.67;;;3.57;;
71902;SDS011;59778;50.310;18.780;2024-01-30T19:28:53;21.10;;;6.87;;
71902;SDS011;59778;50.310;18.780;2024-01-30T19:44:15;13.33;;;4.10;;
71902;SDS011;59778;50.310;18.780;2024-01-30T19:59:36;10.27;;;3.50;;
71902;SDS011;59778;50.310;18.780;2024-01-30T20:14:58;16.97;;;5.97;;
71902;SDS011;59778;50.310;18.780;2024-01-30T20:30:19;14.10;;;4.50;;
71902;SDS011;59778;50.310;18.780;2024-01-30T20:45:43;14.37;;;3.90;;
71902;SDS011;59778;50.310;18.780;2024-01-30T21:01:04;14.57;;;5.23;;
71902;SDS011;59778;50.310;18.780;2024-01-30T21:16:25;13.30;;;4.47;;
71902;SDS011;59778;50.310;18.780;2024-01-30T21:31:47;11.93;;;3.87;;
71902;SDS011;59778;50.310;18.780;2024-01-30T21:47:08;14.03;;;4.20;;
71902;SDS011;59778;50.310;18.780;2024-01-30T22:02:29;12.90;;;3.67;;
71902;SDS011;59778;50.310;18.780;2024-01-30T22:17:51;14.57;;;4.47;;
71902;SDS011;59778;50.310;18.780;2024-01-30T22:33:12;9.57;;;4.30;;
71902;SDS011;59778;50.310;18.780;2024-01-30T22:48:33;13.43;;;4.80;;
71902;SDS011;59778;50.310;18.780;2024-01-30T23:03:54;12.83;;;5.40;;
71902;SDS011;59778;50.310;18.780;2024-01-30T23:19:15;11.70;;;4.50;;
71902;SDS011;59778;50.310;18.780;2024-01-30T23:34:37;13.30;;;4.67;;
71902;SDS011;59778;50.310;18.780;2024-01-30T23:49:58;11.90;;;4.23;;
